sensor_id;sensor_type;location;lat;lon;timestamp;P1;durP1;ratioP1;P2;durP2;ratioP2
15883;SDS011;8040;50.254;10.960;2024-03-23T00:55:30;465.53;;;171.97;;
15883;SDS011;8040;50.254;10.960;2024-03-23T00:57:56;471.93;;;177.37;;
15883;SDS011;8040;50.254;10.960;2024-03-23T01:00:21;470.47;;;175.30;;
15883;SDS011;8040;50.254;10.960;2024-03-23T01:02:46;468.05;;;172.82;;
15883;SDS011;8040;50.254;10.960;2024-03-23T01:05:12;467.97;;;173.87;;
15883;SDS011;8040;50.254;10.960;2024-03-23T01:07:37;465.17;;;172.83;;
15883;SDS011;8040;50.254;10.960;2024-03-23T01:10:03;466.90;;;172.73;;
15883;SDS011;8040;50.254;10.960;2024-03-23T01:12:29;473.67;;;177.55;;
15883;SDS011;8040;50.254;10.960;2024-03-23T01:14:54;470.43;;;171.67;;
15883;SDS011;8040;50.254;10.960;2024-03-23T01:17:20;473.55;;;174.23;;
15883;SDS011;8040;50.254;10.960;2024-03-23T01:19:45;461.73;;;165.53;;
15883;SDS011;8040;50.254;10.960;2024-03-23T01:22:10;463.63;;;167.23;;
15883;SDS011;8040;50.254;10.960;2024-03-23T01:24:36;460.20;;;168.83;;
15883;SDS011;8040;50.254;10.960;2024-03-23T01:27:01;467.52;;;170.70;;
15883;SDS011;8040;50.254;10.960;2024-03-23T01:29:27;464.77;;;166.32;;
15883;SDS011;8040;50.254;10.960;2024-03-23T01:31:52;469.98;;;169.40;;
15883;SDS011;8040;50.254;10.960;2024-03-23T01:34:18;460.13;;;166.50;;
15883;SDS011;8040;50.254;10.960;2024-03-23T01:36:44;467.48;;;170.35;;
15883;SDS011;8040;50.254;10.960;2024-03-23T01:39:11;463.23;;;165.82;;
15883;SDS011;8040;50.254;10.960;2024-03-23T01:41:37;462.00;;;166.60;;
15883;SDS011;8040;50.254;10.960;2024-03-23T01:44:05;463.45;;;166.07;;
15883;SDS011;8040;50.254;10.960;2024-03-23T01:46:33;466.50;;;167.70;;
15883;SDS011;8040;50.254;10.960;2024-03-23T01:49:06;460.13;;;162.13;;
15883;SDS011;8040;50.254;10.960;2024-03-23T01:51:32;467.35;;;166.05;;
15883;SDS011;8040;50.254;10.960;2024-03-23T01:53:58;465.95;;;164.50;;
15883;SDS011;8040;50.254;10.960;2024-03-23T01:56:32;465.55;;;165.40;;
15883;SDS011;8040;50.254;10.960;2024-03-23T01:59:00;461.58;;;163.45;;
15883;SDS011;8040;50.254;10.960;2024-03-23T02:01:26;470.60;;;166.67;;
15883;SDS011;8040;50.254;10.960;2024-03-23T02:03:51;468.83;;;164.67;;
15883;SDS011;8040;50.254;10.960;2024-03-23T02:06:17;467.97;;;164.23;;
15883;SDS011;8040;50.254;10.960;2024-03-23T02:08:43;467.97;;;164.30;;
15883;SDS011;8040;50.254;10.960;2024-03-23T02:11:09;467.50;;;165.10;;
15883;SDS011;8040;50.254;10.960;2024-03-23T02:13:34;473.40;;;168.68;;
15883;SDS011;8040;50.254;10.960;2024-03-23T02:16:00;464.77;;;165.50;;
15883;SDS011;8040;50.254;10.960;2024-03-23T02:18:25;467.53;;;165.83;;
15883;SDS011;8040;50.254;10.960;2024-03-23T02:20:51;467.13;;;167.33;;
15883;SDS011;8040;50.254;10.960;2024-03-23T02:23:16;467.08;;;163.68;;
15883;SDS011;8040;50.254;10.960;2024-03-23T02:25:43;473.05;;;168.70;;
15883;SDS011;8040;50.254;10.960;2024-03-23T02:28:09;468.85;;;164.98;;
15883;SDS011;8040;50.254;10.960;2024-03-23T02:30:35;468.63;;;165.70;;
15883;SDS011;8040;50.254;10.960;2024-03-23T02:33:00;466.33;;;164.87;;
15883;SDS011;8040;50.254;10.960;2024-03-23T02:35:26;469.80;;;164.33;;
15883;SDS011;8040;50.254;10.960;2024-03-23T02:37:51;471.37;;;164.87;;
15883;SDS011;8040;50.254;10.960;2024-03-23T02:40:18;473.30;;;165.95;;
15883;SDS011;8040;50.254;10.960;2024-03-23T02:42:43;477.25;;;168.25;;
15883;SDS011;8040;50.254;10.960;2024-03-23T02:45:08;472.10;;;167.87;;
15883;SDS011;8040;50.254;10.960;2024-03-23T02:47:34;467.87;;;162.90;;
15883;SDS011;8040;50.254;10.960;2024-03-23T02:50:00;468.87;;;162.80;;
15883;SDS011;8040;50.254;10.960;2024-03-23T02:52:25;469.67;;;163.73;;
15883;SDS011;8040;50.254;10.960;2024-03-23T02:54:50;465.92;;;161.98;;
15883;SDS011;8040;50.254;10.960;2024-03-23T02:57:16;469.48;;;164.38;;
15883;SDS011;8040;50.254;10.960;2024-03-23T02:59:41;469.93;;;163.87;;
15883;SDS011;8040;50.254;10.960;2024-03-23T03:02:07;468.43;;;166.27;;
15883;SDS011;8040;50.254;10.960;2024-03-23T03:04:33;467.57;;;161.97;;
15883;SDS011;8040;50.254;10.960;2024-03-23T03:06:58;462.00;;;161.33;;
15883;SDS011;8040;50.254;10.960;2024-03-23T03:09:23;463.03;;;157.93;;
15883;SDS011;8040;50.254;10.960;2024-03-23T03:11:49;464.05;;;162.65;;
15883;SDS011;8040;50.254;10.960;2024-03-23T03:14:15;462.97;;;158.27;;
15883;SDS011;8040;50.254;10.960;2024-03-23T03:16:40;460.05;;;157.48;;
15883;SDS011;8040;50.254;10.960;2024-03-23T03:19:05;461.47;;;160.03;;
15883;SDS011;8040;50.254;10.960;2024-03-23T03:21:31;468.03;;;161.83;;
15883;SDS011;8040;50.254;10.960;2024-03-23T03:23:57;461.27;;;160.30;;
15883;SDS011;8040;50.254;10.960;2024-03-23T03:26:23;465.65;;;161.50;;
15883;SDS011;8040;50.254;10.960;2024-03-23T03:28:49;462.88;;;159.05;;
15883;SDS011;8040;50.254;10.960;2024-03-23T03:31:15;461.75;;;159.15;;
15883;SDS011;8040;50.254;10.960;2024-03-23T03:33:41;470.73;;;164.90;;
15883;SDS011;8040;50.254;10.960;2024-03-23T03:36:07;458.60;;;160.90;;
15883;SDS011;8040;50.254;10.960;2024-03-23T03:38:33;470.73;;;166.80;;
15883;SDS011;8040;50.254;10.960;2024-03-23T03:41:00;454.67;;;156.65;;
15883;SDS011;8040;50.254;10.960;2024-03-23T03:43:26;460.35;;;157.70;;
15883;SDS011;8040;50.254;10.960;2024-03-23T03:45:52;464.05;;;161.95;;
15883;SDS011;8040;50.254;10.960;2024-03-23T03:48:18;469.27;;;165.35;;
15883;SDS011;8040;50.254;10.960;2024-03-23T03:50:44;464.67;;;162.73;;
15883;SDS011;8040;50.254;10.960;2024-03-23T03:53:09;469.17;;;166.07;;
15883;SDS011;8040;50.254;10.960;2024-03-23T03:55:34;466.45;;;164.30;;
15883;SDS011;8040;50.254;10.960;2024-03-23T03:58:00;463.43;;;161.70;;
15883;SDS011;8040;50.254;10.960;2024-03-23T04:00:25;458.23;;;160.83;;
15883;SDS011;8040;50.254;10.960;2024-03-23T04:02:51;467.50;;;163.93;;
15883;SDS011;8040;50.254;10.960;2024-03-23T04:05:16;461.73;;;162.77;;
15883;SDS011;8040;50.254;10.960;2024-03-23T04:07:42;461.42;;;159.18;;
15883;SDS011;8040;50.254;10.960;2024-03-23T04:10:07;456.98;;;158.52;;
15883;SDS011;8040;50.254;10.960;2024-03-23T04:12:33;467.98;;;163.32;;
15883;SDS011;8040;50.254;10.960;2024-03-23T04:14:59;461.33;;;160.50;;
15883;SDS011;8040;50.254;10.960;2024-03-23T04:17:26;462.60;;;159.83;;
15883;SDS011;8040;50.254;10.960;2024-03-23T04:19:56;462.40;;;161.00;;
15883;SDS011;8040;50.254;10.960;2024-03-23T04:22:22;468.07;;;163.80;;
15883;SDS011;8040;50.254;10.960;2024-03-23T04:24:49;464.13;;;162.10;;
15883;SDS011;8040;50.254;10.960;2024-03-23T04:27:15;458.67;;;155.88;;
15883;SDS011;8040;50.254;10.960;2024-03-23T04:29:40;473.03;;;168.00;;
15883;SDS011;8040;50.254;10.960;2024-03-23T04:32:06;457.30;;;160.17;;
15883;SDS011;8040;50.254;10.960;2024-03-23T04:34:31;468.23;;;164.03;;
15883;SDS011;8040;50.254;10.960;2024-03-23T04:36:58;458.58;;;162.02;;
15883;SDS011;8040;50.254;10.960;2024-03-23T04:39:23;465.33;;;165.90;;
15883;SDS011;8040;50.254;10.960;2024-03-23T04:41:49;466.23;;;166.47;;
15883;SDS011;8040;50.254;10.960;2024-03-23T04:44:15;465.27;;;166.82;;
15883;SDS011;8040;50.254;10.960;2024-03-23T04:46:40;461.80;;;166.87;;
15883;SDS011;8040;50.254;10.960;2024-03-23T04:49:06;459.42;;;164.65;;
15883;SDS011;8040;50.254;10.960;2024-03-23T04:51:35;464.73;;;167.87;;
15883;SDS011;8040;50.254;10.960;2024-03-23T04:54:01;465.33;;;168.80;;
15883;SDS011;8040;50.254;10.960;2024-03-23T04:56:27;459.07;;;165.17;;
15883;SDS011;8040;50.254;10.960;2024-03-23T04:58:52;468.27;;;169.88;;
15883;SDS011;8040;50.254;10.960;2024-03-23T05:01:18;466.27;;;170.27;;
15883;SDS011;8040;50.254;10.960;2024-03-23T05:03:43;469.65;;;170.82;;
15883;SDS011;8040;50.254;10.960;2024-03-23T05:06:09;463.53;;;168.57;;
15883;SDS011;8040;50.254;10.960;2024-03-23T05:08:34;465.93;;;170.87;;
15883;SDS011;8040;50.254;10.960;2024-03-23T05:11:00;467.47;;;170.67;;
15883;SDS011;8040;50.254;10.960;2024-03-23T05:13:25;463.48;;;171.82;;
15883;SDS011;8040;50.254;10.960;2024-03-23T05:15:54;464.30;;;171.07;;
15883;SDS011;8040;50.254;10.960;2024-03-23T05:18:20;468.17;;;174.63;;
15883;SDS011;8040;50.254;10.960;2024-03-23T05:20:46;462.63;;;170.35;;
15883;SDS011;8040;50.254;10.960;2024-03-23T05:23:11;466.20;;;174.83;;
15883;SDS011;8040;50.254;10.960;2024-03-23T05:25:36;461.27;;;172.88;;
15883;SDS011;8040;50.254;10.960;2024-03-23T05:28:02;472.40;;;178.57;;
15883;SDS011;8040;50.254;10.960;2024-03-23T05:30:27;468.00;;;174.53;;
15883;SDS011;8040;50.254;10.960;2024-03-23T05:32:53;468.58;;;174.70;;
15883;SDS011;8040;50.254;10.960;2024-03-23T05:35:19;467.67;;;176.48;;
15883;SDS011;8040;50.254;10.960;2024-03-23T05:37:44;462.70;;;172.30;;
15883;SDS011;8040;50.254;10.960;2024-03-23T05:40:10;470.67;;;178.50;;
15883;SDS011;8040;50.254;10.960;2024-03-23T05:42:37;475.70;;;180.90;;
15883;SDS011;8040;50.254;10.960;2024-03-23T05:45:03;466.83;;;178.88;;
15883;SDS011;8040;50.254;10.960;2024-03-23T05:47:31;471.77;;;180.17;;
15883;SDS011;8040;50.254;10.960;2024-03-23T05:49:57;468.90;;;177.90;;
15883;SDS011;8040;50.254;10.960;2024-03-23T05:52:22;470.17;;;180.03;;
15883;SDS011;8040;50.254;10.960;2024-03-23T05:54:50;466.83;;;177.65;;
15883;SDS011;8040;50.254;10.960;2024-03-23T05:57:17;468.03;;;179.80;;
15883;SDS011;8040;50.254;10.960;2024-03-23T05:59:43;464.65;;;177.27;;
15883;SDS011;8040;50.254;10.960;2024-03-23T06:02:09;477.10;;;185.05;;
15883;SDS011;8040;50.254;10.960;2024-03-23T06:04:35;467.02;;;177.85;;
15883;SDS011;8040;50.254;10.960;2024-03-23T06:07:01;473.10;;;182.45;;
15883;SDS011;8040;50.254;10.960;2024-03-23T06:09:26;467.27;;;181.80;;
15883;SDS011;8040;50.254;10.960;2024-03-23T06:11:52;472.97;;;181.63;;
15883;SDS011;8040;50.254;10.960;2024-03-23T06:14:17;472.67;;;183.97;;
15883;SDS011;8040;50.254;10.960;2024-03-23T06:16:43;475.30;;;188.50;;
15883;SDS011;8040;50.254;10.960;2024-03-23T06:19:08;465.57;;;178.07;;
15883;SDS011;8040;50.254;10.960;2024-03-23T06:21:34;469.90;;;183.30;;
15883;SDS011;8040;50.254;10.960;2024-03-23T06:23:59;475.77;;;187.03;;
15883;SDS011;8040;50.254;10.960;2024-03-23T06:26:25;469.97;;;186.10;;
15883;SDS011;8040;50.254;10.960;2024-03-23T06:28:53;513.53;;;206.07;;
15883;SDS011;8040;50.254;10.960;2024-03-23T06:31:19;478.63;;;189.32;;
15883;SDS011;8040;50.254;10.960;2024-03-23T06:33:44;472.38;;;188.20;;
15883;SDS011;8040;50.254;10.960;2024-03-23T06:36:10;470.63;;;189.23;;
15883;SDS011;8040;50.254;10.960;2024-03-23T06:38:36;474.73;;;192.77;;
15883;SDS011;8040;50.254;10.960;2024-03-23T06:41:03;474.33;;;193.00;;
15883;SDS011;8040;50.254;10.960;2024-03-23T06:43:29;472.65;;;189.60;;
15883;SDS011;8040;50.254;10.960;2024-03-23T06:45:55;473.17;;;191.52;;
15883;SDS011;8040;50.254;10.960;2024-03-23T06:48:21;479.27;;;193.98;;
15883;SDS011;8040;50.254;10.960;2024-03-23T06:50:47;465.77;;;185.80;;
15883;SDS011;8040;50.254;10.960;2024-03-23T06:53:13;471.13;;;194.25;;
15883;SDS011;8040;50.254;10.960;2024-03-23T06:55:39;471.95;;;189.10;;
15883;SDS011;8040;50.254;10.960;2024-03-23T06:58:05;474.73;;;191.50;;
15883;SDS011;8040;50.254;10.960;2024-03-23T07:00:31;471.27;;;188.48;;
15883;SDS011;8040;50.254;10.960;2024-03-23T07:02:57;473.58;;;192.32;;
15883;SDS011;8040;50.254;10.960;2024-03-23T07:05:23;471.30;;;194.33;;
15883;SDS011;8040;50.254;10.960;2024-03-23T07:07:48;467.97;;;194.53;;
15883;SDS011;8040;50.254;10.960;2024-03-23T07:10:14;479.10;;;195.77;;
15883;SDS011;8040;50.254;10.960;2024-03-23T07:12:40;479.63;;;198.30;;
15883;SDS011;8040;50.254;10.960;2024-03-23T07:15:06;466.52;;;186.45;;
15883;SDS011;8040;50.254;10.960;2024-03-23T07:17:33;472.63;;;195.07;;
15883;SDS011;8040;50.254;10.960;2024-03-23T07:20:00;465.00;;;189.23;;
15883;SDS011;8040;50.254;10.960;2024-03-23T07:22:29;476.70;;;197.02;;
15883;SDS011;8040;50.254;10.960;2024-03-23T07:24:55;469.60;;;192.52;;
15883;SDS011;8040;50.254;10.960;2024-03-23T07:27:21;455.70;;;194.60;;
15883;SDS011;8040;50.254;10.960;2024-03-23T07:29:46;458.00;;;191.27;;
15883;SDS011;8040;50.254;10.960;2024-03-23T07:32:11;473.83;;;196.67;;
15883;SDS011;8040;50.254;10.960;2024-03-23T07:34:37;510.40;;;217.03;;
15883;SDS011;8040;50.254;10.960;2024-03-23T07:37:02;476.77;;;199.87;;
15883;SDS011;8040;50.254;10.960;2024-03-23T07:39:28;472.02;;;199.18;;
15883;SDS011;8040;50.254;10.960;2024-03-23T07:41:53;477.58;;;205.90;;
15883;SDS011;8040;50.254;10.960;2024-03-23T07:44:19;477.27;;;202.00;;
15883;SDS011;8040;50.254;10.960;2024-03-23T07:46:44;477.10;;;209.10;;
15883;SDS011;8040;50.254;10.960;2024-03-23T07:49:10;475.20;;;208.17;;
15883;SDS011;8040;50.254;10.960;2024-03-23T07:51:35;469.03;;;198.87;;
15883;SDS011;8040;50.254;10.960;2024-03-23T07:54:00;472.23;;;203.37;;
15883;SDS011;8040;50.254;10.960;2024-03-23T07:56:26;473.80;;;202.13;;
15883;SDS011;8040;50.254;10.960;2024-03-23T07:58:51;483.33;;;203.30;;
15883;SDS011;8040;50.254;10.960;2024-03-23T08:01:17;480.77;;;200.00;;
15883;SDS011;8040;50.254;10.960;2024-03-23T08:03:43;487.30;;;200.87;;
15883;SDS011;8040;50.254;10.960;2024-03-23T08:06:10;478.45;;;205.70;;
15883;SDS011;8040;50.254;10.960;2024-03-23T08:08:40;478.42;;;193.82;;
15883;SDS011;8040;50.254;10.960;2024-03-23T08:11:06;471.15;;;189.70;;
15883;SDS011;8040;50.254;10.960;2024-03-23T08:13:32;475.83;;;192.13;;
15883;SDS011;8040;50.254;10.960;2024-03-23T08:16:02;481.63;;;247.65;;
15883;SDS011;8040;50.254;10.960;2024-03-23T08:18:29;479.33;;;192.48;;
15883;SDS011;8040;50.254;10.960;2024-03-23T08:20:59;470.95;;;182.98;;
15883;SDS011;8040;50.254;10.960;2024-03-23T08:23:29;482.45;;;186.50;;
15883;SDS011;8040;50.254;10.960;2024-03-23T08:26:03;498.40;;;194.93;;
15883;SDS011;8040;50.254;10.960;2024-03-23T08:28:29;486.00;;;188.77;;
15883;SDS011;8040;50.254;10.960;2024-03-23T08:30:55;471.77;;;180.33;;
15883;SDS011;8040;50.254;10.960;2024-03-23T08:33:21;479.38;;;181.73;;
15883;SDS011;8040;50.254;10.960;2024-03-23T08:35:55;475.20;;;178.33;;
15883;SDS011;8040;50.254;10.960;2024-03-23T08:38:22;479.88;;;181.82;;
15883;SDS011;8040;50.254;10.960;2024-03-23T08:40:48;470.67;;;176.00;;
15883;SDS011;8040;50.254;10.960;2024-03-23T08:43:25;489.10;;;183.57;;
15883;SDS011;8040;50.254;10.960;2024-03-23T08:45:51;482.05;;;176.30;;
15883;SDS011;8040;50.254;10.960;2024-03-23T08:48:17;483.80;;;179.45;;
15883;SDS011;8040;50.254;10.960;2024-03-23T08:50:44;479.65;;;175.30;;
15883;SDS011;8040;50.254;10.960;2024-03-23T08:53:09;475.00;;;171.70;;
15883;SDS011;8040;50.254;10.960;2024-03-23T08:55:34;483.83;;;175.18;;
15883;SDS011;8040;50.254;10.960;2024-03-23T08:58:00;487.33;;;175.63;;
15883;SDS011;8040;50.254;10.960;2024-03-23T09:00:26;487.48;;;174.43;;
15883;SDS011;8040;50.254;10.960;2024-03-23T09:02:51;497.10;;;174.67;;
15883;SDS011;8040;50.254;10.960;2024-03-23T09:05:18;495.30;;;178.00;;
15883;SDS011;8040;50.254;10.960;2024-03-23T09:07:43;480.80;;;170.77;;
15883;SDS011;8040;50.254;10.960;2024-03-23T09:10:08;495.73;;;177.10;;
15883;SDS011;8040;50.254;10.960;2024-03-23T09:12:34;500.10;;;181.13;;
15883;SDS011;8040;50.254;10.960;2024-03-23T09:14:59;492.90;;;180.17;;
15883;SDS011;8040;50.254;10.960;2024-03-23T09:17:25;479.90;;;170.33;;
15883;SDS011;8040;50.254;10.960;2024-03-23T09:19:50;473.17;;;168.48;;
15883;SDS011;8040;50.254;10.960;2024-03-23T09:22:15;470.40;;;165.87;;
15883;SDS011;8040;50.254;10.960;2024-03-23T09:24:41;500.80;;;183.20;;
15883;SDS011;8040;50.254;10.960;2024-03-23T09:27:06;486.17;;;175.97;;
15883;SDS011;8040;50.254;10.960;2024-03-23T09:29:32;495.60;;;176.60;;
15883;SDS011;8040;50.254;10.960;2024-03-23T09:31:58;510.07;;;184.93;;
15883;SDS011;8040;50.254;10.960;2024-03-23T09:34:23;535.33;;;200.57;;
15883;SDS011;8040;50.254;10.960;2024-03-23T09:36:52;522.03;;;194.35;;
15883;SDS011;8040;50.254;10.960;2024-03-23T09:39:17;495.00;;;178.88;;
15883;SDS011;8040;50.254;10.960;2024-03-23T09:41:44;504.83;;;180.83;;
15883;SDS011;8040;50.254;10.960;2024-03-23T09:44:10;480.80;;;168.52;;
15883;SDS011;8040;50.254;10.960;2024-03-23T09:46:35;516.05;;;186.50;;
15883;SDS011;8040;50.254;10.960;2024-03-23T09:49:01;487.77;;;171.30;;
15883;SDS011;8040;50.254;10.960;2024-03-23T09:51:30;490.95;;;174.40;;
15883;SDS011;8040;50.254;10.960;2024-03-23T09:53:56;488.25;;;173.35;;
15883;SDS011;8040;50.254;10.960;2024-03-23T09:56:22;489.77;;;175.43;;
15883;SDS011;8040;50.254;10.960;2024-03-23T09:58:48;521.77;;;194.17;;
15883;SDS011;8040;50.254;10.960;2024-03-23T10:01:14;492.23;;;181.20;;
15883;SDS011;8040;50.254;10.960;2024-03-23T10:03:46;484.67;;;177.32;;
15883;SDS011;8040;50.254;10.960;2024-03-23T10:06:11;478.57;;;176.27;;
15883;SDS011;8040;50.254;10.960;2024-03-23T10:08:37;486.33;;;177.83;;
15883;SDS011;8040;50.254;10.960;2024-03-23T10:11:15;484.67;;;176.57;;
15883;SDS011;8040;50.254;10.960;2024-03-23T10:13:42;506.70;;;190.32;;
15883;SDS011;8040;50.254;10.960;2024-03-23T10:16:08;494.75;;;185.40;;
15883;SDS011;8040;50.254;10.960;2024-03-23T10:18:41;499.75;;;186.65;;
15883;SDS011;8040;50.254;10.960;2024-03-23T10:23:36;501.07;;;189.43;;
15883;SDS011;8040;50.254;10.960;2024-03-23T10:28:50;500.88;;;187.07;;
15883;SDS011;8040;50.254;10.960;2024-03-23T10:31:16;507.40;;;192.77;;
15883;SDS011;8040;50.254;10.960;2024-03-23T10:33:45;500.35;;;190.73;;
15883;SDS011;8040;50.254;10.960;2024-03-23T10:36:12;498.50;;;190.63;;
15883;SDS011;8040;50.254;10.960;2024-03-23T10:38:38;548.10;;;214.65;;
15883;SDS011;8040;50.254;10.960;2024-03-23T10:41:06;487.70;;;186.05;;
15883;SDS011;8040;50.254;10.960;2024-03-23T10:43:33;494.05;;;192.30;;
15883;SDS011;8040;50.254;10.960;2024-03-23T10:45:59;494.67;;;192.63;;
15883;SDS011;8040;50.254;10.960;2024-03-23T10:48:25;494.35;;;191.25;;
15883;SDS011;8040;50.254;10.960;2024-03-23T10:50:50;480.83;;;189.05;;
15883;SDS011;8040;50.254;10.960;2024-03-23T10:53:16;476.90;;;188.23;;
15883;SDS011;8040;50.254;10.960;2024-03-23T10:55:42;516.55;;;214.93;;
15883;SDS011;8040;50.254;10.960;2024-03-23T10:58:09;497.00;;;200.50;;
15883;SDS011;8040;50.254;10.960;2024-03-23T11:00:37;508.55;;;212.98;;
15883;SDS011;8040;50.254;10.960;2024-03-23T11:06:02;512.47;;;216.87;;
15883;SDS011;8040;50.254;10.960;2024-03-23T11:08:35;506.58;;;213.10;;
15883;SDS011;8040;50.254;10.960;2024-03-23T11:11:17;503.02;;;213.52;;
15883;SDS011;8040;50.254;10.960;2024-03-23T11:13:50;505.53;;;214.80;;
15883;SDS011;8040;50.254;10.960;2024-03-23T11:16:24;520.33;;;221.57;;
15883;SDS011;8040;50.254;10.960;2024-03-23T11:18:53;516.50;;;220.20;;
15883;SDS011;8040;50.254;10.960;2024-03-23T11:24:20;512.13;;;216.93;;
15883;SDS011;8040;50.254;10.960;2024-03-23T11:26:47;506.60;;;210.70;;
15883;SDS011;8040;50.254;10.960;2024-03-23T11:29:18;522.88;;;220.63;;
15883;SDS011;8040;50.254;10.960;2024-03-23T11:31:50;507.10;;;212.53;;
15883;SDS011;8040;50.254;10.960;2024-03-23T11:34:17;509.38;;;216.13;;
15883;SDS011;8040;50.254;10.960;2024-03-23T11:36:43;502.35;;;212.13;;
15883;SDS011;8040;50.254;10.960;2024-03-23T11:39:15;495.60;;;207.88;;
15883;SDS011;8040;50.254;10.960;2024-03-23T11:41:51;487.27;;;201.18;;
15883;SDS011;8040;50.254;10.960;2024-03-23T11:44:18;489.50;;;202.47;;
15883;SDS011;8040;50.254;10.960;2024-03-23T11:46:48;495.15;;;204.38;;
15883;SDS011;8040;50.254;10.960;2024-03-23T11:49:21;505.85;;;211.13;;
15883;SDS011;8040;50.254;10.960;2024-03-23T11:51:47;499.57;;;203.97;;
15883;SDS011;8040;50.254;10.960;2024-03-23T11:54:13;491.73;;;197.40;;
15883;SDS011;8040;50.254;10.960;2024-03-23T11:56:39;502.37;;;203.87;;
15883;SDS011;8040;50.254;10.960;2024-03-23T11:59:05;503.90;;;205.03;;
15883;SDS011;8040;50.254;10.960;2024-03-23T12:01:31;502.70;;;201.57;;
15883;SDS011;8040;50.254;10.960;2024-03-23T12:03:57;517.57;;;208.83;;
15883;SDS011;8040;50.254;10.960;2024-03-23T12:06:22;500.25;;;199.57;;
15883;SDS011;8040;50.254;10.960;2024-03-23T12:08:48;497.33;;;195.73;;
15883;SDS011;8040;50.254;10.960;2024-03-23T12:11:18;497.93;;;199.70;;
15883;SDS011;8040;50.254;10.960;2024-03-23T12:13:44;499.92;;;196.13;;
15883;SDS011;8040;50.254;10.960;2024-03-23T12:16:12;507.33;;;204.82;;
15883;SDS011;8040;50.254;10.960;2024-03-23T12:18:39;505.20;;;201.05;;
15883;SDS011;8040;50.254;10.960;2024-03-23T12:21:08;512.38;;;206.32;;
15883;SDS011;8040;50.254;10.960;2024-03-23T12:23:34;505.52;;;202.25;;
15883;SDS011;8040;50.254;10.960;2024-03-23T12:26:00;500.80;;;196.70;;
15883;SDS011;8040;50.254;10.960;2024-03-23T12:28:26;525.87;;;213.60;;
15883;SDS011;8040;50.254;10.960;2024-03-23T12:30:53;500.07;;;199.90;;
15883;SDS011;8040;50.254;10.960;2024-03-23T12:33:19;535.10;;;220.95;;
15883;SDS011;8040;50.254;10.960;2024-03-23T12:35:50;492.87;;;200.40;;
15883;SDS011;8040;50.254;10.960;2024-03-23T12:38:16;497.92;;;202.52;;
15883;SDS011;8040;50.254;10.960;2024-03-23T12:40:45;493.67;;;201.27;;
15883;SDS011;8040;50.254;10.960;2024-03-23T12:43:12;501.55;;;203.63;;
15883;SDS011;8040;50.254;10.960;2024-03-23T12:45:38;500.38;;;202.65;;
15883;SDS011;8040;50.254;10.960;2024-03-23T12:48:03;512.57;;;208.77;;
15883;SDS011;8040;50.254;10.960;2024-03-23T12:50:29;508.07;;;198.67;;
15883;SDS011;8040;50.254;10.960;2024-03-23T12:52:54;500.20;;;195.20;;
15883;SDS011;8040;50.254;10.960;2024-03-23T12:55:20;510.08;;;196.20;;
15883;SDS011;8040;50.254;10.960;2024-03-23T12:57:46;499.13;;;193.95;;
15883;SDS011;8040;50.254;10.960;2024-03-23T13:00:12;523.72;;;207.05;;
15883;SDS011;8040;50.254;10.960;2024-03-23T13:02:38;507.02;;;198.45;;
15883;SDS011;8040;50.254;10.960;2024-03-23T13:05:04;507.50;;;197.57;;
15883;SDS011;8040;50.254;10.960;2024-03-23T13:07:34;510.85;;;201.70;;
15883;SDS011;8040;50.254;10.960;2024-03-23T13:10:00;509.80;;;202.88;;
15883;SDS011;8040;50.254;10.960;2024-03-23T13:12:26;507.87;;;203.00;;
15883;SDS011;8040;50.254;10.960;2024-03-23T13:14:51;516.17;;;202.60;;
15883;SDS011;8040;50.254;10.960;2024-03-23T13:17:16;500.20;;;198.77;;
15883;SDS011;8040;50.254;10.960;2024-03-23T13:19:42;526.43;;;210.10;;
15883;SDS011;8040;50.254;10.960;2024-03-23T13:22:07;516.23;;;199.33;;
15883;SDS011;8040;50.254;10.960;2024-03-23T13:24:36;495.42;;;191.75;;
15883;SDS011;8040;50.254;10.960;2024-03-23T13:27:01;507.65;;;199.95;;
15883;SDS011;8040;50.254;10.960;2024-03-23T13:29:27;517.77;;;211.37;;
15883;SDS011;8040;50.254;10.960;2024-03-23T13:31:52;503.10;;;203.53;;
15883;SDS011;8040;50.254;10.960;2024-03-23T13:34:18;502.13;;;207.70;;
15883;SDS011;8040;50.254;10.960;2024-03-23T13:36:44;522.25;;;219.50;;
15883;SDS011;8040;50.254;10.960;2024-03-23T13:39:11;502.13;;;207.82;;
15883;SDS011;8040;50.254;10.960;2024-03-23T13:41:38;490.02;;;206.77;;
15883;SDS011;8040;50.254;10.960;2024-03-23T13:44:07;498.90;;;208.98;;
15883;SDS011;8040;50.254;10.960;2024-03-23T13:46:35;494.67;;;212.25;;
15883;SDS011;8040;50.254;10.960;2024-03-23T13:49:01;502.20;;;216.00;;
15883;SDS011;8040;50.254;10.960;2024-03-23T13:51:27;505.20;;;217.03;;
15883;SDS011;8040;50.254;10.960;2024-03-23T13:53:56;511.17;;;222.17;;
15883;SDS011;8040;50.254;10.960;2024-03-23T13:56:25;515.22;;;224.50;;
15883;SDS011;8040;50.254;10.960;2024-03-23T13:58:50;501.87;;;221.43;;
15883;SDS011;8040;50.254;10.960;2024-03-23T14:01:16;496.63;;;217.37;;
15883;SDS011;8040;50.254;10.960;2024-03-23T14:03:42;504.33;;;218.07;;
15883;SDS011;8040;50.254;10.960;2024-03-23T14:06:08;507.58;;;221.30;;
15883;SDS011;8040;50.254;10.960;2024-03-23T14:08:34;508.30;;;222.03;;
15883;SDS011;8040;50.254;10.960;2024-03-23T14:11:04;504.98;;;219.93;;
15883;SDS011;8040;50.254;10.960;2024-03-23T14:13:29;499.33;;;216.82;;
15883;SDS011;8040;50.254;10.960;2024-03-23T14:15:55;502.13;;;217.73;;
15883;SDS011;8040;50.254;10.960;2024-03-23T14:18:21;506.53;;;221.60;;
15883;SDS011;8040;50.254;10.960;2024-03-23T14:20:48;520.25;;;228.52;;
15883;SDS011;8040;50.254;10.960;2024-03-23T14:23:14;506.15;;;222.90;;
15883;SDS011;8040;50.254;10.960;2024-03-23T14:25:39;517.30;;;223.97;;
15883;SDS011;8040;50.254;10.960;2024-03-23T14:28:05;519.38;;;226.32;;
15883;SDS011;8040;50.254;10.960;2024-03-23T14:30:30;504.03;;;214.50;;
15883;SDS011;8040;50.254;10.960;2024-03-23T14:32:56;506.52;;;216.48;;
15883;SDS011;8040;50.254;10.960;2024-03-23T14:35:22;507.33;;;217.55;;
15883;SDS011;8040;50.254;10.960;2024-03-23T14:37:48;526.83;;;229.93;;
15883;SDS011;8040;50.254;10.960;2024-03-23T14:40:14;495.90;;;214.20;;
15883;SDS011;8040;50.254;10.960;2024-03-23T14:42:39;500.67;;;218.23;;
15883;SDS011;8040;50.254;10.960;2024-03-23T14:45:06;498.92;;;216.15;;
15883;SDS011;8040;50.254;10.960;2024-03-23T14:47:33;502.50;;;221.95;;
15883;SDS011;8040;50.254;10.960;2024-03-23T14:49:59;511.77;;;223.63;;
15883;SDS011;8040;50.254;10.960;2024-03-23T14:52:26;497.30;;;219.13;;
15883;SDS011;8040;50.254;10.960;2024-03-23T14:54:51;500.00;;;218.67;;
15883;SDS011;8040;50.254;10.960;2024-03-23T14:57:16;504.27;;;223.27;;